Weather at As Suwayda West Air Base

Public forecast

Using degrees Celsius for public forecast. Weather courtesy of forecast.io.

Closest aviation weather report (METAR) to As Suwayda West Air Base

Closest report is Damascus International Airport, 42.7 nm (79.1 km) N.

2024/05/25 22:00 (retrieved 33 minutes ago)

OSDI 252200Z 22011KT CAVOK 17/11 Q1013

Closest aviation forecast (TAF) to As Suwayda West Air Base

Forecast is more than 12 hours old.

Closest forecast is Damascus International Airport, 42.7 nm (79.1 km) N.

2024/05/25 06:36 (retrieved 16 hours ago)

TAF OSDI 250400Z 2506/2612 23015KT CAVOK TEMPO 2512/2518 24015G25KT 9999 FEW030